Time;durP1;ratioP1;P1;durP2;ratioP2;P2;SDS_P1;SDS_P2;PMS_P1;PMS_P2;Temp;Humidity;BMP_temperature;BMP_pressure;BME280_temperature;BME280_humidity;BME280_pressure;Samples;Min_cycle;Max_cycle;Signal;HPM_P1;HPM_P2
2022/04/09 00:01:00;;;;;;;;;;;20.90;29.80;;;;;;5126705;28;19924;-60
2022/04/09 00:03:26;;;;;;;;;;;21.10;29.60;;;;;;5121463;28;19927;-58
2022/04/09 00:05:51;;;;;;;;;;;21.10;29.40;;;;;;5125344;28;20015;-51
2022/04/09 00:08:17;;;;;;;;;;;21.00;29.60;;;;;;5099601;28;20374;-59
2022/04/09 00:10:43;;;;;;;;;;;21.00;29.70;;;;;;5119430;28;19976;-57
2022/04/09 00:13:09;;;;;;;;;;;21.10;29.50;;;;;;5126726;28;19943;-59
2022/04/09 00:15:34;;;;;;;;;;;21.10;29.60;;;;;;5121429;28;19977;-58
2022/04/09 00:18:00;;;;;;;;;;;21.20;29.40;;;;;;5121178;28;20341;-60
2022/04/09 00:20:26;;;;;;;;;;;21.10;29.50;;;;;;5126534;28;20338;-52
2022/04/09 00:22:52;;;;;;;;;;;21.20;29.50;;;;;;5120935;28;20386;-60
2022/04/09 00:25:23;;;;;;;;;;;21.00;29.80;;;;;;5121882;28;19929;-59
2022/04/09 00:27:52;;;;;;;;;;;21.10;29.70;;;;;;5106458;28;19972;-60
2022/04/09 00:30:18;;;;;;;;;;;21.00;29.60;;;;;;5118881;28;19923;-59
2022/04/09 00:32:44;;;;;;;;;;;21.20;29.60;;;;;;5126511;28;20374;-60
2022/04/09 00:35:10;;;;;;;;;;;20.80;30.10;;;;;;5120950;28;19946;-59
2022/04/09 00:37:45;;;;;;;;;;;21.00;29.80;;;;;;5120721;28;19927;-60
2022/04/09 00:40:12;;;;;;;;;;;21.00;29.60;;;;;;5126205;28;20010;-48
2022/04/09 00:42:40;;;;;;;;;;;21.10;29.40;;;;;;5119602;28;20287;-59
2022/04/09 00:45:07;;;;;;;;;;;20.80;29.70;;;;;;5118684;28;20168;-59
2022/04/09 00:47:33;;;;;;;;;;;21.00;29.60;;;;;;5124114;28;20413;-58
2022/04/09 00:50:05;;;;;;;;;;;21.10;29.40;;;;;;5120812;28;19958;-58
2022/04/09 00:52:35;;;;;;;;;;;21.10;29.60;;;;;;5121581;28;19996;-55
2022/04/09 00:55:02;;;;;;;;;;;21.00;29.80;;;;;;5126070;28;19927;-58
2022/04/09 00:57:28;;;;;;;;;;;20.90;29.90;;;;;;5120434;28;19976;-59
2022/04/09 00:59:54;;;;;;;;;;;21.10;29.50;;;;;;5125600;28;19923;-56
2022/04/09 01:02:20;;;;;;;;;;;21.20;29.40;;;;;;5117580;28;19931;-58
2022/04/09 01:04:46;;;;;;;;;;;21.00;29.70;;;;;;5120034;28;19930;-52
2022/04/09 01:07:12;;;;;;;;;;;21.10;29.50;;;;;;5105708;27;20039;-60
2022/04/09 01:09:38;;;;;;;;;;;20.80;30.00;;;;;;5105779;28;20010;-59
2022/04/09 01:12:04;;;;;;;;;;;21.00;29.50;;;;;;5124275;28;19924;-60
2022/04/09 01:14:30;;;;;;;;;;;21.20;29.40;;;;;;5129566;28;19934;-60
2022/04/09 01:16:56;;;;;;;;;;;21.10;29.50;;;;;;5123910;28;20005;-59
2022/04/09 01:19:22;;;;;;;;;;;21.10;29.40;;;;;;5128526;28;19923;-58
2022/04/09 01:21:48;;;;;;;;;;;21.00;29.60;;;;;;5121637;28;19931;-60
2022/04/09 01:24:13;;;;;;;;;;;21.20;29.50;;;;;;5103571;28;19923;-59
2022/04/09 01:26:39;;;;;;;;;;;21.00;29.60;;;;;;5129019;28;20328;-59
2022/04/09 01:29:05;;;;;;;;;;;21.00;29.60;;;;;;5105535;28;20161;-51
2022/04/09 01:31:31;;;;;;;;;;;21.20;29.50;;;;;;5123646;28;20275;-59
2022/04/09 01:33:57;;;;;;;;;;;21.10;29.70;;;;;;5129030;28;19930;-49
2022/04/09 01:36:22;;;;;;;;;;;21.10;29.60;;;;;;5123726;28;20272;-60
2022/04/09 01:38:48;;;;;;;;;;;20.90;29.80;;;;;;5126169;28;19980;-59
2022/04/09 01:41:14;;;;;;;;;;;21.00;29.40;;;;;;5123218;28;19928;-60
2022/04/09 01:43:41;;;;;;;;;;;21.00;29.50;;;;;;5121467;28;19923;-58
2022/04/09 01:46:07;;;;;;;;;;;21.10;29.40;;;;;;5129243;28;20345;-57
2022/04/09 01:48:33;;;;;;;;;;;21.20;29.40;;;;;;5123884;28;19930;-59
2022/04/09 01:50:59;;;;;;;;;;;21.10;29.50;;;;;;5123766;28;19923;-58
2022/04/09 01:53:24;;;;;;;;;;;21.10;29.40;;;;;;5128995;28;19931;-60
2022/04/09 01:55:50;;;;;;;;;;;20.90;29.40;;;;;;5122567;28;19933;-59
2022/04/09 01:58:16;;;;;;;;;;;21.00;29.30;;;;;;5123231;28;19932;-57
2022/04/09 02:00:42;;;;;;;;;;;21.10;29.50;;;;;;5125321;28;19924;-57
2022/04/09 02:03:08;;;;;;;;;;;21.10;29.50;;;;;;5122455;28;19923;-60
2022/04/09 02:05:34;;;;;;;;;;;21.00;29.70;;;;;;5128603;28;19924;-59
2022/04/09 02:08:01;;;;;;;;;;;21.10;29.60;;;;;;5123098;28;19950;-56
2022/04/09 02:10:28;;;;;;;;;;;21.00;29.50;;;;;;5123347;28;19931;-60
2022/04/09 02:12:54;;;;;;;;;;;21.10;29.60;;;;;;5128807;28;20025;-53
2022/04/09 02:15:20;;;;;;;;;;;21.10;29.60;;;;;;5121227;28;19928;-60
2022/04/09 02:17:46;;;;;;;;;;;21.10;29.60;;;;;;5121426;28;19930;-57
2022/04/09 02:20:12;;;;;;;;;;;21.10;29.50;;;;;;5107125;28;19930;-60
2022/04/09 02:22:44;;;;;;;;;;;21.00;29.60;;;;;;5122982;28;19979;-58
2022/04/09 02:25:11;;;;;;;;;;;21.10;29.50;;;;;;5128600;28;20056;-60
2022/04/09 02:27:37;;;;;;;;;;;21.20;29.60;;;;;;5122882;28;19927;-60
2022/04/09 02:30:03;;;;;;;;;;;21.20;29.70;;;;;;5104400;28;19981;-60
2022/04/09 02:32:29;;;;;;;;;;;21.10;29.80;;;;;;5127734;28;19989;-56
2022/04/09 02:34:56;;;;;;;;;;;21.00;29.80;;;;;;5120413;28;19923;-59
2022/04/09 02:37:22;;;;;;;;;;;21.10;29.80;;;;;;5121530;28;20038;-54
2022/04/09 02:39:48;;;;;;;;;;;21.10;29.70;;;;;;5127080;28;19948;-59
2022/04/09 02:42:14;;;;;;;;;;;21.00;30.00;;;;;;5122764;28;19924;-60
2022/04/09 02:44:40;;;;;;;;;;;21.20;29.90;;;;;;5126597;28;19930;-59
2022/04/09 02:47:06;;;;;;;;;;;21.10;29.90;;;;;;5124711;28;19931;-59
2022/04/09 02:49:31;;;;;;;;;;;21.10;29.90;;;;;;5122656;28;19993;-51
2022/04/09 02:51:57;;;;;;;;;;;21.20;29.80;;;;;;5108200;28;19923;-58
2022/04/09 02:54:23;;;;;;;;;;;21.00;30.00;;;;;;5120671;28;20259;-59
2022/04/09 02:56:49;;;;;;;;;;;21.20;29.80;;;;;;5120369;28;19924;-52
2022/04/09 02:59:14;;;;;;;;;;;21.10;29.90;;;;;;5128087;28;20218;-59
2022/04/09 03:01:45;;;;;;;;;;;21.00;30.00;;;;;;5122286;28;19923;-59
2022/04/09 03:04:12;;;;;;;;;;;21.20;29.80;;;;;;5122164;28;20037;-59
2022/04/09 03:06:37;;;;;;;;;;;21.00;30.00;;;;;;5127525;28;20347;-60
2022/04/09 03:09:03;;;;;;;;;;;21.20;29.90;;;;;;5121640;28;19971;-60
2022/04/09 03:11:29;;;;;;;;;;;21.00;30.10;;;;;;5124945;28;19944;-59
2022/04/09 03:13:55;;;;;;;;;;;21.10;29.90;;;;;;5102918;28;19927;-56
2022/04/09 03:16:20;;;;;;;;;;;21.00;30.00;;;;;;5120627;28;20363;-60
2022/04/09 03:18:47;;;;;;;;;;;21.00;30.00;;;;;;5127421;28;19924;-59
2022/04/09 03:21:12;;;;;;;;;;;21.00;30.00;;;;;;5121952;28;20363;-58
2022/04/09 03:23:38;;;;;;;;;;;21.20;29.80;;;;;;5086004;28;20196;-59
2022/04/09 03:26:05;;;;;;;;;;;21.10;29.70;;;;;;5127564;28;19927;-60
2022/04/09 03:28:31;;;;;;;;;;;21.10;29.60;;;;;;5120663;28;20934;-58
2022/04/09 03:30:57;;;;;;;;;;;21.10;29.60;;;;;;5124955;27;19927;-60
2022/04/09 03:33:22;;;;;;;;;;;21.20;29.60;;;;;;5119696;28;19929;-50
2022/04/09 03:35:48;;;;;;;;;;;21.10;29.60;;;;;;5121768;28;19924;-59
2022/04/09 03:38:14;;;;;;;;;;;21.00;30.00;;;;;;5127259;28;19923;-60
2022/04/09 03:40:40;;;;;;;;;;;21.00;29.90;;;;;;5121834;28;19923;-59
2022/04/09 03:43:05;;;;;;;;;;;21.30;29.60;;;;;;5121672;28;19950;-58
2022/04/09 03:45:31;;;;;;;;;;;21.20;29.80;;;;;;5126837;28;19928;-59
2022/04/09 03:47:57;;;;;;;;;;;21.20;29.90;;;;;;5118690;28;20294;-59
2022/04/09 03:50:23;;;;;;;;;;;21.00;29.90;;;;;;5126450;28;20039;-51
2022/04/09 03:52:49;;;;;;;;;;;21.20;29.80;;;;;;5120043;28;19924;-59
2022/04/09 03:55:15;;;;;;;;;;;21.00;30.20;;;;;;5103205;28;19928;-57
2022/04/09 03:57:40;;;;;;;;;;;21.10;29.90;;;;;;5127242;28;19923;-50
2022/04/09 04:00:07;;;;;;;;;;;21.00;29.90;;;;;;5121507;28;20407;-61
2022/04/09 04:02:33;;;;;;;;;;;21.10;29.90;;;;;;5102918;28;19928;-56
2022/04/09 04:05:02;;;;;;;;;;;21.10;29.80;;;;;;5107344;28;20402;-59
2022/04/09 04:07:29;;;;;;;;;;;20.90;30.10;;;;;;5119076;28;19931;-58
2022/04/09 04:09:54;;;;;;;;;;;21.10;29.70;;;;;;5120905;28;19958;-59
2022/04/09 04:12:20;;;;;;;;;;;21.10;29.70;;;;;;5105702;28;19924;-59
2022/04/09 04:14:46;;;;;;;;;;;21.10;29.80;;;;;;5121226;28;19982;-59
2022/04/09 04:17:12;;;;;;;;;;;21.10;29.70;;;;;;5126669;28;20321;-53
2022/04/09 04:19:39;;;;;;;;;;;21.20;29.60;;;;;;5121346;28;19923;-59
2022/04/09 04:22:05;;;;;;;;;;;21.00;30.00;;;;;;5121025;28;19934;-50
2022/04/09 04:24:31;;;;;;;;;;;21.10;29.80;;;;;;5123747;28;19954;-58
2022/04/09 04:26:56;;;;;;;;;;;21.00;29.80;;;;;;5102109;28;19943;-58
2022/04/09 04:29:22;;;;;;;;;;;21.20;29.50;;;;;;5118996;28;20294;-58
2022/04/09 04:31:48;;;;;;;;;;;21.10;29.60;;;;;;5126302;28;19923;-59
2022/04/09 04:34:14;;;;;;;;;;;21.00;29.60;;;;;;5101499;28;19959;-59
2022/04/09 04:36:40;;;;;;;;;;;21.10;29.40;;;;;;5126285;28;20540;-60
2022/04/09 04:39:05;;;;;;;;;;;21.10;29.40;;;;;;5120899;28;19927;-59
2022/04/09 04:41:31;;;;;;;;;;;21.10;29.40;;;;;;5120178;28;19931;-60
2022/04/09 04:43:57;;;;;;;;;;;21.10;29.40;;;;;;5123119;27;19923;-60
2022/04/09 04:46:23;;;;;;;;;;;21.20;29.30;;;;;;5119093;28;20413;-59
2022/04/09 04:48:48;;;;;;;;;;;21.10;29.30;;;;;;5101225;28;20217;-59
2022/04/09 04:51:14;;;;;;;;;;;21.20;29.20;;;;;;5126051;28;19928;-59
2022/04/09 04:53:40;;;;;;;;;;;21.00;29.40;;;;;;5120497;28;19930;-59
2022/04/09 04:56:06;;;;;;;;;;;21.00;29.40;;;;;;5126055;28;20280;-59
2022/04/09 04:58:31;;;;;;;;;;;21.00;29.30;;;;;;5120618;28;20299;-59
2022/04/09 05:00:57;;;;;;;;;;;21.20;29.10;;;;;;5100424;28;19996;-58
2022/04/09 05:03:23;;;;;;;;;;;21.10;29.20;;;;;;5124407;28;20393;-59
2022/04/09 05:05:49;;;;;;;;;;;21.20;29.10;;;;;;5100129;28;19987;-58
2022/04/09 05:08:15;;;;;;;;;;;20.80;29.50;;;;;;5120590;28;20587;-59
2022/04/09 05:10:40;;;;;;;;;;;20.90;29.20;;;;;;5090669;28;20066;-59
2022/04/09 05:13:06;;;;;;;;;;;21.00;29.20;;;;;;5120627;28;19923;-59
2022/04/09 05:15:32;;;;;;;;;;;21.00;29.10;;;;;;5126154;28;20014;-59
2022/04/09 05:18:00;;;;;;;;;;;21.20;29.10;;;;;;5120035;28;20324;-58
2022/04/09 05:20:26;;;;;;;;;;;21.20;29.10;;;;;;5118042;28;20334;-60
2022/04/09 05:22:52;;;;;;;;;;;21.10;29.30;;;;;;5124476;28;19930;-57
2022/04/09 05:25:21;;;;;;;;;;;21.20;29.20;;;;;;5119082;28;19948;-59
2022/04/09 05:27:50;;;;;;;;;;;21.00;29.30;;;;;;5120025;28;20405;-58
2022/04/09 05:30:16;;;;;;;;;;;21.10;29.20;;;;;;5125675;28;19928;-59
2022/04/09 05:32:43;;;;;;;;;;;21.10;29.20;;;;;;5120132;28;19927;-59
2022/04/09 05:35:09;;;;;;;;;;;21.20;29.00;;;;;;5120236;28;20439;-58
2022/04/09 05:37:34;;;;;;;;;;;21.20;29.00;;;;;;5123780;28;20000;-58
2022/04/09 05:40:00;;;;;;;;;;;21.00;29.20;;;;;;5118394;28;20006;-59
2022/04/09 05:42:26;;;;;;;;;;;21.00;29.20;;;;;;5123365;28;19923;-60
2022/04/09 05:44:52;;;;;;;;;;;21.10;29.10;;;;;;5100862;28;20425;-50
2022/04/09 05:47:18;;;;;;;;;;;21.10;29.10;;;;;;5119833;28;20289;-59
2022/04/09 05:49:44;;;;;;;;;;;21.00;29.20;;;;;;5125486;28;19928;-59
2022/04/09 05:52:10;;;;;;;;;;;21.10;29.00;;;;;;5120028;28;20026;-50
2022/04/09 05:54:35;;;;;;;;;;;21.10;29.00;;;;;;5120296;27;20076;-58
2022/04/09 05:57:02;;;;;;;;;;;21.10;28.90;;;;;;5126059;28;20394;-59
2022/04/09 05:59:29;;;;;;;;;;;21.10;28.80;;;;;;5122658;28;20319;-59
2022/04/09 06:01:55;;;;;;;;;;;21.20;28.60;;;;;;5127211;28;19934;-60
2022/04/09 06:04:21;;;;;;;;;;;21.20;28.60;;;;;;5123269;28;19924;-58
2022/04/09 06:06:47;;;;;;;;;;;21.00;28.90;;;;;;5103229;28;20327;-60
2022/04/09 06:09:13;;;;;;;;;;;21.20;28.80;;;;;;5128667;28;19924;-60
2022/04/09 06:11:39;;;;;;;;;;;21.10;28.90;;;;;;5123291;28;19927;-57
2022/04/09 06:14:05;;;;;;;;;;;21.20;28.80;;;;;;5122092;28;20151;-59
2022/04/09 06:16:31;;;;;;;;;;;21.00;28.80;;;;;;5126426;28;19948;-50
2022/04/09 06:18:56;;;;;;;;;;;21.10;28.60;;;;;;5121096;28;20029;-58
2022/04/09 06:21:22;;;;;;;;;;;21.00;28.80;;;;;;5108566;28;20468;-59
2022/04/09 06:23:48;;;;;;;;;;;21.10;28.60;;;;;;5105306;28;19958;-60
2022/04/09 06:26:14;;;;;;;;;;;21.20;28.60;;;;;;5104425;28;19983;-59
2022/04/09 06:28:40;;;;;;;;;;;21.00;28.70;;;;;;5128301;28;20348;-59
2022/04/09 06:31:05;;;;;;;;;;;21.10;28.60;;;;;;5122650;28;20278;-58
2022/04/09 06:33:31;;;;;;;;;;;21.20;28.60;;;;;;5119835;28;19929;-59
2022/04/09 06:35:57;;;;;;;;;;;21.00;28.80;;;;;;5127468;28;20735;-59
2022/04/09 06:38:23;;;;;;;;;;;21.20;28.60;;;;;;5120420;28;19923;-56
2022/04/09 06:40:48;;;;;;;;;;;20.90;28.80;;;;;;5125972;28;20351;-58
2022/04/09 06:43:15;;;;;;;;;;;21.10;28.50;;;;;;5125219;28;19923;-56
2022/04/09 06:45:40;;;;;;;;;;;21.10;28.50;;;;;;5122718;28;19929;-60
2022/04/09 06:48:06;;;;;;;;;;;21.20;28.50;;;;;;5128307;28;20325;-48
2022/04/09 06:50:32;;;;;;;;;;;21.00;28.50;;;;;;5121823;28;19930;-60
2022/04/09 06:52:58;;;;;;;;;;;21.00;28.60;;;;;;5120305;28;19932;-59
2022/04/09 06:55:24;;;;;;;;;;;21.20;28.40;;;;;;5126603;28;19924;-59
2022/04/09 06:57:49;;;;;;;;;;;21.00;28.50;;;;;;5122185;28;19935;-60
2022/04/09 07:00:15;;;;;;;;;;;21.30;28.30;;;;;;5123387;28;20458;-57
2022/04/09 07:02:41;;;;;;;;;;;21.10;28.40;;;;;;5127272;28;19927;-59
2022/04/09 07:05:07;;;;;;;;;;;21.10;28.40;;;;;;5122116;27;20332;-60
2022/04/09 07:07:33;;;;;;;;;;;21.20;28.30;;;;;;5127768;28;19923;-58
2022/04/09 07:10:06;;;;;;;;;;;21.00;28.40;;;;;;5120340;28;19974;-59
2022/04/09 07:12:31;;;;;;;;;;;21.20;28.30;;;;;;5121271;28;19935;-60
2022/04/09 07:14:57;;;;;;;;;;;20.80;28.70;;;;;;5125776;28;19936;-59
2022/04/09 07:17:24;;;;;;;;;;;21.00;28.50;;;;;;5121983;28;19942;-59
2022/04/09 07:19:50;;;;;;;;;;;21.20;28.30;;;;;;5121943;28;20414;-60
2022/04/09 07:22:16;;;;;;;;;;;21.10;28.50;;;;;;5127409;28;19966;-47
2022/04/09 07:24:42;;;;;;;;;;;21.20;28.30;;;;;;5102483;28;19931;-59
2022/04/09 07:27:08;;;;;;;;;;;21.10;28.50;;;;;;5126786;28;19923;-54
2022/04/09 07:29:33;;;;;;;;;;;21.20;28.10;;;;;;5119851;28;19930;-58
2022/04/09 07:31:59;;;;;;;;;;;20.90;28.70;;;;;;5120514;28;19931;-59
2022/04/09 07:34:25;;;;;;;;;;;21.00;28.40;;;;;;5126568;28;19928;-58
2022/04/09 07:36:51;;;;;;;;;;;21.20;28.20;;;;;;5103351;28;19927;-57
2022/04/09 07:39:17;;;;;;;;;;;21.10;28.40;;;;;;5122196;28;20571;-60
2022/04/09 07:41:42;;;;;;;;;;;21.20;28.30;;;;;;5127338;28;19962;-58
2022/04/09 07:44:08;;;;;;;;;;;21.10;28.30;;;;;;5121688;28;20298;-58
2022/04/09 07:46:34;;;;;;;;;;;21.30;28.30;;;;;;5124638;28;19931;-59
2022/04/09 07:49:00;;;;;;;;;;;21.10;28.50;;;;;;5121713;28;19927;-58
2022/04/09 07:51:26;;;;;;;;;;;21.20;28.50;;;;;;5101526;28;19946;-59
2022/04/09 07:53:51;;;;;;;;;;;21.00;28.70;;;;;;5108170;28;19927;-55
2022/04/09 07:56:17;;;;;;;;;;;21.20;28.60;;;;;;5102098;28;19977;-60
2022/04/09 07:58:43;;;;;;;;;;;21.10;28.70;;;;;;5121543;28;19923;-50
2022/04/09 08:01:09;;;;;;;;;;;21.10;28.70;;;;;;5126756;28;19948;-60
2022/04/09 08:03:35;;;;;;;;;;;21.20;28.50;;;;;;5121227;28;19930;-59
2022/04/09 08:06:01;;;;;;;;;;;21.00;28.70;;;;;;5121058;28;19930;-58
2022/04/09 08:08:26;;;;;;;;;;;21.10;28.50;;;;;;5124551;28;19928;-59
2022/04/09 08:10:52;;;;;;;;;;;21.00;28.80;;;;;;5119807;28;19928;-59
2022/04/09 08:13:18;;;;;;;;;;;21.10;28.70;;;;;;5126748;28;19931;-59
2022/04/09 08:15:44;;;;;;;;;;;21.00;28.90;;;;;;5121304;28;20399;-59
2022/04/09 08:18:11;;;;;;;;;;;21.10;28.60;;;;;;5120203;27;19923;-55
2022/04/09 08:20:37;;;;;;;;;;;21.00;28.70;;;;;;5126538;28;19923;-60
2022/04/09 08:23:03;;;;;;;;;;;21.10;28.50;;;;;;5120045;28;19937;-57
2022/04/09 08:25:29;;;;;;;;;;;21.00;28.70;;;;;;5118957;28;19930;-59
2022/04/09 08:27:55;;;;;;;;;;;21.00;28.60;;;;;;5124966;28;19924;-60
2022/04/09 08:30:22;;;;;;;;;;;21.20;28.60;;;;;;5120657;28;20438;-59
2022/04/09 08:32:49;;;;;;;;;;;21.00;28.80;;;;;;5108353;28;20392;-58
2022/04/09 08:35:16;;;;;;;;;;;21.20;28.60;;;;;;5121032;28;19982;-58
2022/04/09 08:37:41;;;;;;;;;;;21.00;28.50;;;;;;5120872;28;20038;-59
2022/04/09 08:40:09;;;;;;;;;;;21.20;28.30;;;;;;5126123;28;19933;-51
2022/04/09 08:42:35;;;;;;;;;;;21.10;28.30;;;;;;5100306;28;19927;-59
2022/04/09 08:45:01;;;;;;;;;;;21.00;28.60;;;;;;5101596;28;19923;-57
2022/04/09 08:47:28;;;;;;;;;;;21.20;28.20;;;;;;5124391;28;20423;-60
2022/04/09 08:49:54;;;;;;;;;;;21.00;28.50;;;;;;5120750;28;19975;-52
2022/04/09 08:52:20;;;;;;;;;;;21.10;28.30;;;;;;5126034;28;20367;-58
2022/04/09 08:54:46;;;;;;;;;;;21.10;28.20;;;;;;5102832;28;19924;-57
2022/04/09 08:57:11;;;;;;;;;;;21.00;28.10;;;;;;5120747;28;19924;-60
2022/04/09 08:59:37;;;;;;;;;;;21.10;28.10;;;;;;5125625;28;19923;-53
2022/04/09 09:02:03;;;;;;;;;;;21.20;28.00;;;;;;5118540;28;19984;-59
2022/04/09 09:04:29;;;;;;;;;;;21.00;28.10;;;;;;5119648;28;20150;-49
2022/04/09 09:06:55;;;;;;;;;;;21.10;28.00;;;;;;5124753;28;19989;-59
2022/04/09 09:09:25;;;;;;;;;;;21.20;28.00;;;;;;5120383;28;19924;-58
2022/04/09 09:11:51;;;;;;;;;;;21.10;27.90;;;;;;5121757;28;19958;-60
2022/04/09 09:14:23;;;;;;;;;;;21.00;28.10;;;;;;5106461;28;19924;-56
2022/04/09 09:16:49;;;;;;;;;;;21.10;27.80;;;;;;5120425;28;19948;-59
2022/04/09 09:19:15;;;;;;;;;;;21.00;27.80;;;;;;5124500;28;20308;-51
2022/04/09 09:21:50;;;;;;;;;;;21.20;27.70;;;;;;5118779;28;19927;-59
2022/04/09 09:24:16;;;;;;;;;;;21.20;27.70;;;;;;5118601;28;19923;-57
2022/04/09 09:26:44;;;;;;;;;;;20.90;27.90;;;;;;5125566;28;19946;-60
2022/04/09 09:29:11;;;;;;;;;;;21.00;28.00;;;;;;5121752;27;20596;-60
2022/04/09 09:31:38;;;;;;;;;;;21.20;27.70;;;;;;5124072;28;20034;-58
2022/04/09 09:34:07;;;;;;;;;;;21.00;27.90;;;;;;5129329;28;19923;-58
2022/04/09 09:36:33;;;;;;;;;;;21.10;27.80;;;;;;5123361;28;20018;-56
2022/04/09 09:39:02;;;;;;;;;;;21.10;27.70;;;;;;5122030;28;20040;-57
2022/04/09 09:41:28;;;;;;;;;;;21.20;27.60;;;;;;5128502;28;19930;-59
2022/04/09 09:44:00;;;;;;;;;;;21.00;27.90;;;;;;5122285;28;19963;-57
2022/04/09 09:46:26;;;;;;;;;;;21.20;27.60;;;;;;5129073;28;19927;-54
2022/04/09 09:48:52;;;;;;;;;;;21.10;27.70;;;;;;5105216;28;20339;-57
2022/04/09 09:51:21;;;;;;;;;;;21.20;27.60;;;;;;5104837;28;19929;-59
2022/04/09 09:53:47;;;;;;;;;;;20.90;27.90;;;;;;5110786;28;19924;-59
2022/04/09 09:56:13;;;;;;;;;;;21.20;27.70;;;;;;5103997;28;19981;-56
2022/04/09 09:58:39;;;;;;;;;;;20.90;27.70;;;;;;5121715;28;19935;-59
2022/04/09 10:01:04;;;;;;;;;;;21.10;27.60;;;;;;5127011;28;19976;-54
2022/04/09 10:03:30;;;;;;;;;;;21.10;27.50;;;;;;5105008;28;19939;-58
2022/04/09 10:05:56;;;;;;;;;;;21.20;27.40;;;;;;5127452;28;20373;-59
2022/04/09 10:08:22;;;;;;;;;;;20.90;27.70;;;;;;5125186;28;20006;-55
2022/04/09 10:10:51;;;;;;;;;;;21.20;27.30;;;;;;5123236;28;20431;-50
2022/04/09 10:13:20;;;;;;;;;;;21.10;27.30;;;;;;5128520;28;20022;-59
2022/04/09 10:15:47;;;;;;;;;;;20.90;27.50;;;;;;5121086;28;19983;-55
2022/04/09 10:18:13;;;;;;;;;;;21.20;27.20;;;;;;5122898;28;19930;-59
2022/04/09 10:20:38;;;;;;;;;;;20.90;27.50;;;;;;5126648;28;19928;-60
2022/04/09 10:23:06;;;;;;;;;;;21.10;27.30;;;;;;5122984;28;19931;-56
2022/04/09 10:25:32;;;;;;;;;;;21.00;27.50;;;;;;5104883;28;19928;-56
2022/04/09 10:27:59;;;;;;;;;;;21.20;27.30;;;;;;5108818;28;19958;-59
2022/04/09 10:30:25;;;;;;;;;;;20.80;27.60;;;;;;5123142;28;19923;-59
2022/04/09 10:32:55;;;;;;;;;;;21.10;27.30;;;;;;5127654;28;19931;-56
2022/04/09 10:35:21;;;;;;;;;;;21.00;27.30;;;;;;5120762;28;19979;-51
2022/04/09 10:38:06;;;;;;;;;;;21.10;27.10;;;;;;5121412;28;19928;-59
2022/04/09 10:40:31;;;;;;;;;;;21.10;27.30;;;;;;5127093;27;19928;-51
2022/04/09 10:42:58;;;;;;;;;;;21.20;27.20;;;;;;5102496;28;19977;-52
2022/04/09 10:45:24;;;;;;;;;;;21.00;27.30;;;;;;5122791;28;20423;-54
2022/04/09 10:48:06;;;;;;;;;;;21.30;27.10;;;;;;5128448;28;19924;-58
2022/04/09 10:50:51;;;;;;;;;;;21.10;27.10;;;;;;5122434;28;19929;-54
2022/04/09 10:53:17;;;;;;;;;;;21.00;27.10;;;;;;5120654;28;19979;-57
2022/04/09 10:55:43;;;;;;;;;;;21.20;26.80;;;;;;5127183;28;20395;-59
2022/04/09 10:58:10;;;;;;;;;;;21.20;26.80;;;;;;5121304;28;19927;-56
2022/04/09 11:00:37;;;;;;;;;;;21.10;26.70;;;;;;5122433;28;19928;-58
2022/04/09 11:03:22;;;;;;;;;;;21.20;26.70;;;;;;5128056;28;20379;-59
2022/04/09 11:05:47;;;;;;;;;;;21.00;26.70;;;;;;5122665;28;20019;-59
2022/04/09 11:08:14;;;;;;;;;;;21.10;26.60;;;;;;5104086;28;20258;-50
2022/04/09 11:10:41;;;;;;;;;;;21.10;26.50;;;;;;5126344;28;19923;-58
2022/04/09 11:13:10;;;;;;;;;;;21.20;26.40;;;;;;5102698;28;20018;-58
2022/04/09 11:15:37;;;;;;;;;;;20.90;26.40;;;;;;5105273;28;19923;-59
2022/04/09 11:18:03;;;;;;;;;;;21.00;26.10;;;;;;5124250;28;19924;-54
2022/04/09 11:20:33;;;;;;;;;;;21.10;25.90;;;;;;5122059;28;19934;-57
2022/04/09 11:23:19;;;;;;;;;;;20.90;26.40;;;;;;5127401;28;19927;-57
2022/04/09 11:25:45;;;;;;;;;;;21.20;26.20;;;;;;5123378;28;19928;-60
2022/04/09 11:28:17;;;;;;;;;;;20.90;26.60;;;;;;5121383;28;19928;-57
2022/04/09 11:30:53;;;;;;;;;;;21.20;26.20;;;;;;5107545;28;19923;-59
2022/04/09 11:33:19;;;;;;;;;;;21.10;26.20;;;;;;5120351;28;19933;-52
2022/04/09 11:35:45;;;;;;;;;;;21.10;26.00;;;;;;5121655;28;19927;-59
2022/04/09 11:38:11;;;;;;;;;;;21.10;25.90;;;;;;5127185;28;20448;-51
2022/04/09 11:40:42;;;;;;;;;;;21.10;25.70;;;;;;5121704;28;19923;-59
2022/04/09 11:43:08;;;;;;;;;;;21.20;25.40;;;;;;5121803;28;19924;-58
2022/04/09 11:45:34;;;;;;;;;;;21.10;25.40;;;;;;5126949;28;20330;-53
2022/04/09 11:48:00;;;;;;;;;;;21.30;25.30;;;;;;5119115;28;19995;-57
2022/04/09 11:50:30;;;;;;;;;;;20.90;25.70;;;;;;5125087;28;19923;-50
2022/04/09 11:52:57;;;;;;;;;;;21.20;25.50;;;;;;5123383;27;19971;-60
2022/04/09 11:55:23;;;;;;;;;;;21.10;25.60;;;;;;5121693;28;19924;-59
2022/04/09 11:57:49;;;;;;;;;;;21.10;25.50;;;;;;5126989;28;20017;-59
2022/04/09 12:00:15;;;;;;;;;;;21.00;25.40;;;;;;5121803;28;19968;-50
2022/04/09 12:02:41;;;;;;;;;;;20.90;25.50;;;;;;5121451;28;19923;-52
2022/04/09 12:05:10;;;;;;;;;;;21.10;25.40;;;;;;5126065;28;19927;-59
2022/04/09 12:07:42;;;;;;;;;;;21.00;25.60;;;;;;5119578;28;19975;-59
2022/04/09 12:10:24;;;;;;;;;;;21.10;25.40;;;;;;5119840;28;20351;-60
2022/04/09 12:12:56;;;;;;;;;;;20.90;25.60;;;;;;5126607;28;20348;-55
2022/04/09 12:15:29;;;;;;;;;;;21.10;25.40;;;;;;5121287;28;20375;-59
2022/04/09 12:17:55;;;;;;;;;;;21.10;25.60;;;;;;5121326;28;20225;-57
2022/04/09 12:20:28;;;;;;;;;;;21.20;25.60;;;;;;5125927;28;21292;-59
2022/04/09 12:22:54;;;;;;;;;;;21.00;25.70;;;;;;5100591;28;19930;-56
2022/04/09 12:25:31;;;;;;;;;;;21.20;25.40;;;;;;5121450;28;20454;-56
2022/04/09 12:27:57;;;;;;;;;;;21.10;25.50;;;;;;5125547;28;19927;-49
2022/04/09 12:30:37;;;;;;;;;;;21.10;25.50;;;;;;5120128;28;19969;-55
2022/04/09 12:33:06;;;;;;;;;;;21.10;25.50;;;;;;5124639;28;19924;-55
2022/04/09 12:35:32;;;;;;;;;;;21.10;25.50;;;;;;5124699;28;20022;-52
2022/04/09 12:37:58;;;;;;;;;;;21.30;25.40;;;;;;5121007;28;19923;-58
2022/04/09 12:40:26;;;;;;;;;;;20.90;25.70;;;;;;5126472;28;19930;-56
2022/04/09 12:42:54;;;;;;;;;;;21.20;25.40;;;;;;5118919;28;19924;-58
2022/04/09 12:45:22;;;;;;;;;;;21.00;25.40;;;;;;5120115;28;19976;-56
2022/04/09 12:48:00;;;;;;;;;;;21.20;24.90;;;;;;5124650;28;19931;-52
2022/04/09 12:50:28;;;;;;;;;;;21.00;24.60;;;;;;5120789;28;19924;-55
2022/04/09 12:52:54;;;;;;;;;;;21.20;24.40;;;;;;5120759;28;19924;-47
2022/04/09 12:55:21;;;;;;;;;;;21.00;24.50;;;;;;5126070;28;19931;-57
2022/04/09 12:57:47;;;;;;;;;;;21.10;24.50;;;;;;5120712;28;19930;-51
2022/04/09 13:00:13;;;;;;;;;;;21.10;24.70;;;;;;5103216;28;19928;-54
2022/04/09 13:02:40;;;;;;;;;;;21.10;24.80;;;;;;5122472;28;19927;-59
2022/04/09 13:05:06;;;;;;;;;;;21.00;25.10;;;;;;5122069;27;20386;-48
2022/04/09 13:07:31;;;;;;;;;;;21.10;24.90;;;;;;5129275;28;19934;-51
2022/04/09 13:09:57;;;;;;;;;;;21.20;24.70;;;;;;5124134;28;19967;-57
2022/04/09 13:12:23;;;;;;;;;;;21.10;24.80;;;;;;5106128;28;20348;-59
2022/04/09 13:14:49;;;;;;;;;;;21.30;24.50;;;;;;5129789;28;19924;-57
2022/04/09 13:17:14;;;;;;;;;;;20.90;24.60;;;;;;5124084;28;19927;-51
2022/04/09 13:19:40;;;;;;;;;;;21.10;24.40;;;;;;5121857;28;19930;-58
2022/04/09 13:22:06;;;;;;;;;;;21.10;24.60;;;;;;5128215;28;19977;-57
2022/04/09 13:24:32;;;;;;;;;;;21.20;24.50;;;;;;5122285;28;19935;-59
2022/04/09 13:26:58;;;;;;;;;;;21.00;24.90;;;;;;5129453;28;19923;-48
2022/04/09 13:29:23;;;;;;;;;;;21.10;24.60;;;;;;5123980;28;20018;-59
2022/04/09 13:31:49;;;;;;;;;;;21.20;24.40;;;;;;5105621;28;20426;-54
2022/04/09 13:34:17;;;;;;;;;;;21.00;24.60;;;;;;5110868;28;19923;-56
2022/04/09 13:36:43;;;;;;;;;;;21.10;24.60;;;;;;5123299;28;19924;-57
2022/04/09 13:39:09;;;;;;;;;;;21.00;24.80;;;;;;5121569;28;20182;-50
2022/04/09 13:41:35;;;;;;;;;;;21.20;24.50;;;;;;5127567;28;19924;-59
2022/04/09 13:44:01;;;;;;;;;;;21.00;24.50;;;;;;5102943;28;20404;-58
2022/04/09 13:46:27;;;;;;;;;;;21.20;24.30;;;;;;5129015;28;19923;-60
2022/04/09 13:48:52;;;;;;;;;;;20.90;24.40;;;;;;5123573;28;19927;-55
2022/04/09 13:51:18;;;;;;;;;;;21.20;23.90;;;;;;5123854;28;20332;-57
2022/04/09 13:53:44;;;;;;;;;;;21.10;24.20;;;;;;5129262;28;19927;-57
2022/04/09 13:56:10;;;;;;;;;;;21.30;24.10;;;;;;5121948;28;19931;-59
2022/04/09 13:58:36;;;;;;;;;;;21.00;24.20;;;;;;5122145;28;19950;-51
2022/04/09 14:01:02;;;;;;;;;;;21.20;23.60;;;;;;5108634;28;19962;-60
2022/04/09 14:03:27;;;;;;;;;;;20.90;23.80;;;;;;5123275;28;20385;-59
2022/04/09 14:05:53;;;;;;;;;;;21.30;23.40;;;;;;5109919;28;19934;-58
2022/04/09 14:08:19;;;;;;;;;;;21.00;23.80;;;;;;5124108;28;20562;-54
2022/04/09 14:10:45;;;;;;;;;;;21.20;23.50;;;;;;5123110;28;19934;-59
2022/04/09 14:13:11;;;;;;;;;;;20.90;23.70;;;;;;5128200;28;19931;-52